Time;durP1;ratioP1;P1;durP2;ratioP2;P2;SDS_P1;SDS_P2;PMS_P1;PMS_P2;Temp;Humidity;BMP_temperature;BMP_pressure;BME280_temperature;BME280_humidity;BME280_pressure;Samples;Min_cycle;Max_cycle;Signal;HPM_P1;HPM_P2
2022/08/09 00:02:28;;;;;;;2.47;2.17;;;22.60;99.90;;;;;;10291376;28;20221;-79
2022/08/09 00:07:30;;;;;;;4.05;2.13;;;22.60;99.90;;;;;;10291486;28;20295;-80
2022/08/09 00:12:46;;;;;;;3.67;2.78;;;22.60;99.90;;;;;;10291587;28;20233;-80
2022/08/09 00:17:54;;;;;;;2.67;2.17;;;22.60;99.90;;;;;;10290138;28;20238;-80
2022/08/09 00:23:12;;;;;;;3.85;2.30;;;22.60;99.90;;;;;;10290453;28;20232;-80
2022/08/09 00:28:35;;;;;;;3.03;1.80;;;22.50;99.90;;;;;;10292735;28;20249;-80
2022/08/09 00:33:38;;;;;;;2.60;2.30;;;22.50;99.90;;;;;;10291303;28;20265;-80
2022/08/09 00:38:52;;;;;;;2.40;2.20;;;22.50;99.90;;;;;;10290135;28;20229;-80
2022/08/09 00:43:55;;;;;;;3.83;2.60;;;22.50;99.90;;;;;;10290597;28;20256;-79
2022/08/09 00:49:17;;;;;;;2.47;2.10;;;22.50;99.90;;;;;;10263972;28;20260;-80
2022/08/09 00:54:23;;;;;;;3.95;3.03;;;22.50;99.90;;;;;;10291532;28;20233;-79
2022/08/09 00:59:41;;;;;;;2.13;1.92;;;22.50;99.90;;;;;;10288166;28;20288;-80
2022/08/09 01:05:27;;;;;;;2.58;2.20;;;22.50;99.90;;;;;;10288763;28;20249;-80
2022/08/09 01:11:08;;;;;;;2.40;2.15;;;22.50;99.90;;;;;;10286780;28;20595;-80
2022/08/09 01:16:22;;;;;;;3.00;2.28;;;22.50;99.90;;;;;;10282039;28;20280;-80
2022/08/09 01:21:55;;;;;;;3.10;2.80;;;22.50;99.90;;;;;;10277475;28;20760;-80
2022/08/09 01:27:15;;;;;;;3.22;2.50;;;22.50;99.90;;;;;;10278449;28;20325;-80
2022/08/09 01:32:21;;;;;;;2.47;2.03;;;22.50;99.90;;;;;;10280098;28;20315;-80
2022/08/09 01:37:36;;;;;;;3.53;2.30;;;22.50;99.90;;;;;;10278499;28;20271;-80
2022/08/09 01:43:00;;;;;;;3.78;2.83;;;22.50;99.90;;;;;;10238361;29;20306;-80
2022/08/09 01:48:04;;;;;;;2.70;2.28;;;22.50;99.90;;;;;;10263885;28;20296;-80
2022/08/09 01:53:09;;;;;;;3.75;2.70;;;22.50;99.90;;;;;;10276792;28;20328;-80
2022/08/09 01:58:25;;;;;;;2.70;2.50;;;22.50;99.90;;;;;;10276597;28;20271;-80
2022/08/09 02:03:32;;;;;;;3.03;2.50;;;22.50;99.90;;;;;;10280505;28;20687;-80
2022/08/09 02:08:40;;;;;;;4.38;2.80;;;22.50;99.90;;;;;;10278729;28;20300;-80
2022/08/09 02:14:04;;;;;;;2.50;2.30;;;22.50;99.90;;;;;;10276061;28;20749;-80
2022/08/09 02:19:09;;;;;;;4.65;2.50;;;22.50;99.90;;;;;;10278058;28;20625;-80
2022/08/09 02:24:17;;;;;;;2.38;2.17;;;22.50;99.90;;;;;;10276830;28;20296;-80
2022/08/09 02:29:33;;;;;;;2.40;2.20;;;22.40;99.90;;;;;;10277743;28;20320;-80
2022/08/09 02:34:37;;;;;;;2.83;2.60;;;22.40;99.90;;;;;;10276596;28;20599;-80
2022/08/09 02:39:57;;;;;;;2.60;2.40;;;22.40;99.90;;;;;;10276854;28;20638;-80
2022/08/09 02:45:27;;;;;;;3.53;2.83;;;22.40;99.90;;;;;;10275603;28;20667;-79
2022/08/09 02:50:38;;;;;;;4.00;2.53;;;22.40;99.90;;;;;;10279100;28;20308;-81
2022/08/09 02:55:46;;;;;;;2.95;2.05;;;22.40;99.90;;;;;;10279616;28;20360;-80
2022/08/09 03:01:01;;;;;;;3.60;2.88;;;22.40;99.90;;;;;;10277156;28;20287;-80
2022/08/09 03:06:07;;;;;;;3.60;2.42;;;22.40;99.90;;;;;;10283541;28;20253;-80
2022/08/09 03:11:14;;;;;;;2.75;2.53;;;22.40;99.90;;;;;;10286289;28;20304;-80
2022/08/09 03:16:37;;;;;;;3.20;2.70;;;22.40;99.90;;;;;;10287384;28;20268;-80
2022/08/09 03:21:50;;;;;;;2.60;2.38;;;22.40;99.90;;;;;;10285037;28;20244;-80
2022/08/09 03:26:53;;;;;;;2.65;2.40;;;22.40;99.90;;;;;;10286620;28;20697;-80
2022/08/09 03:31:57;;;;;;;2.97;2.42;;;22.40;99.90;;;;;;10285549;28;20316;-80
2022/08/09 03:37:02;;;;;;;2.47;2.28;;;22.40;99.90;;;;;;10260725;28;20337;-80
2022/08/09 03:42:24;;;;;;;3.03;2.38;;;22.40;99.90;;;;;;10249162;28;20238;-80
2022/08/09 03:47:30;;;;;;;3.22;2.53;;;22.40;99.90;;;;;;10292163;28;20229;-80
2022/08/09 03:52:43;;;;;;;2.58;2.38;;;22.40;99.90;;;;;;10290784;28;20244;-80
2022/08/09 03:57:49;;;;;;;3.05;2.45;;;22.40;99.90;;;;;;10292153;28;20233;-80
2022/08/09 04:03:12;;;;;;;2.65;2.28;;;22.40;99.90;;;;;;10291216;28;20616;-80
2022/08/09 04:08:34;;;;;;;3.28;2.97;;;22.40;99.90;;;;;;10290736;28;20610;-80
2022/08/09 04:13:37;;;;;;;4.72;2.55;;;22.40;99.90;;;;;;10290289;28;20229;-85
2022/08/09 04:19:00;;;;;;;2.08;1.90;;;22.40;99.90;;;;;;10290954;28;20237;-80
2022/08/09 04:24:03;;;;;;;2.53;2.20;;;22.40;99.90;;;;;;10291635;28;20233;-80
2022/08/09 04:29:06;;;;;;;4.43;2.38;;;22.40;99.90;;;;;;10291187;28;20303;-80
2022/08/09 04:34:16;;;;;;;5.22;2.67;;;22.40;99.90;;;;;;10289886;28;20398;-80
2022/08/09 04:39:32;;;;;;;3.42;3.13;;;22.40;99.90;;;;;;10290893;28;20291;-80
2022/08/09 04:44:42;;;;;;;5.65;3.15;;;22.50;99.90;;;;;;10291543;28;20201;-80
2022/08/09 04:49:51;;;;;;;8.95;3.65;;;22.40;99.90;;;;;;10294778;28;20299;-83
2022/08/09 04:54:59;;;;;;;7.22;4.15;;;22.40;99.90;;;;;;10290166;28;20229;-80
2022/08/09 05:00:04;;;;;;;5.07;3.50;;;22.40;99.90;;;;;;10268160;28;20233;-80
2022/08/09 05:05:09;;;;;;;6.72;3.35;;;22.40;99.90;;;;;;10270632;28;20244;-80
2022/08/09 05:10:13;;;;;;;3.95;3.42;;;22.50;99.90;;;;;;10309903;28;20699;-80
2022/08/09 05:15:16;;;;;;;5.50;3.15;;;22.50;99.90;;;;;;10297420;28;20273;-80
2022/08/09 05:20:38;;;;;;;4.90;3.60;;;22.50;99.90;;;;;;10276442;28;20229;-80
2022/08/09 05:25:41;;;;;;;6.38;3.83;;;22.50;99.90;;;;;;10289180;28;20748;-80
2022/08/09 05:30:47;;;;;;;6.35;3.38;;;22.50;99.90;;;;;;10285788;28;20253;-80
2022/08/09 05:35:52;;;;;;;3.67;3.10;;;22.50;99.90;;;;;;10287823;28;20564;-80
2022/08/09 05:40:58;;;;;;;5.43;3.33;;;22.60;99.90;;;;;;10287041;28;20237;-80
2022/08/09 05:46:01;;;;;;;3.90;3.47;;;22.60;99.90;;;;;;10297217;28;20677;-80
2022/08/09 05:51:05;;;;;;;6.65;4.03;;;22.60;99.90;;;;;;10286949;28;20265;-80
2022/08/09 05:56:28;;;;;;;4.85;2.72;;;22.60;99.90;;;;;;10288662;28;20257;-80
2022/08/09 06:01:31;;;;;;;3.40;3.10;;;22.60;99.90;;;;;;10287446;28;20675;-80
2022/08/09 06:06:43;;;;;;;4.28;2.90;;;22.60;99.90;;;;;;10292029;28;20262;-83
2022/08/09 06:11:52;;;;;;;4.70;3.55;;;22.60;99.90;;;;;;10316800;28;20257;-80
2022/08/09 06:16:59;;;;;;;4.75;3.00;;;22.60;99.90;;;;;;10291006;28;20665;-80
2022/08/09 06:22:10;;;;;;;6.07;3.58;;;22.60;99.90;;;;;;10286857;28;20260;-79
2022/08/09 06:27:16;;;;;;;6.60;3.60;;;22.50;99.90;;;;;;10284884;28;20632;-80
2022/08/09 06:32:19;;;;;;;5.38;2.90;;;22.60;99.90;;;;;;10292831;28;20248;-81
2022/08/09 06:37:41;;;;;;;3.85;3.50;;;22.60;99.90;;;;;;10293129;28;20233;-80
2022/08/09 06:43:04;;;;;;;4.05;2.70;;;22.60;99.90;;;;;;10285542;28;20233;-79
2022/08/09 06:48:11;;;;;;;5.10;2.70;;;22.60;99.90;;;;;;10269817;28;20241;-80
2022/08/09 06:53:18;;;;;;;4.75;4.13;;;22.60;99.90;;;;;;10285342;28;20265;-81
2022/08/09 06:58:21;;;;;;;4.43;3.13;;;22.60;99.90;;;;;;10277428;28;20233;-81
2022/08/09 07:03:43;;;;;;;3.72;2.75;;;22.60;99.90;;;;;;10286483;28;20279;-81
2022/08/09 07:08:55;;;;;;;3.45;2.78;;;22.60;99.90;;;;;;10284269;28;20630;-81
2022/08/09 07:13:57;;;;;;;4.75;4.20;;;22.60;99.90;;;;;;10286506;28;20253;-80
2022/08/09 07:19:10;;;;;;;3.55;3.25;;;22.60;99.90;;;;;;10287282;28;20253;-80
2022/08/09 07:24:20;;;;;;;4.25;3.05;;;22.70;99.90;;;;;;10286051;28;20261;-80
2022/08/09 07:29:34;;;;;;;3.50;2.78;;;22.70;99.90;;;;;;10287145;28;20261;-80
2022/08/09 07:34:39;;;;;;;5.30;3.15;;;22.70;99.90;;;;;;10284459;28;20260;-81
2022/08/09 07:39:43;;;;;;;3.90;3.50;;;22.80;99.90;;;;;;10285083;28;20695;-80
2022/08/09 07:44:47;;;;;;;4.53;3.08;;;22.90;99.90;;;;;;10281836;28;20234;-80
2022/08/09 07:49:55;;;;;;;3.30;2.80;;;22.90;99.90;;;;;;10283209;28;20265;-80
2022/08/09 07:55:10;;;;;;;6.50;3.17;;;22.90;99.90;;;;;;10287936;28;20279;-80
2022/08/09 08:00:15;;;;;;;3.85;3.35;;;23.00;99.90;;;;;;10289003;28;20291;-80
2022/08/09 08:05:37;;;;;;;3.40;3.10;;;23.00;99.90;;;;;;10288231;28;20248;-80
2022/08/09 08:10:56;;;;;;;4.40;3.17;;;23.00;99.90;;;;;;10288673;28;20679;-80
2022/08/09 08:16:18;;;;;;;3.25;2.95;;;23.10;99.90;;;;;;10290438;28;20236;-79
2022/08/09 08:21:33;;;;;;;4.43;2.80;;;23.10;99.90;;;;;;10290209;28;20630;-80
2022/08/09 08:26:41;;;;;;;6.30;3.22;;;23.20;99.90;;;;;;10285911;28;20291;-80
2022/08/09 08:31:58;;;;;;;2.92;2.72;;;23.30;99.90;;;;;;10294601;28;20252;-80
2022/08/09 08:37:06;;;;;;;12.10;6.15;;;23.40;99.90;;;;;;10287268;28;20453;-80
2022/08/09 08:42:17;;;;;;;3.90;3.22;;;23.50;99.90;;;;;;10287749;28;20828;-80
2022/08/09 08:47:27;;;;;;;2.97;2.70;;;23.60;99.90;;;;;;10289515;28;20237;-79
2022/08/09 08:52:33;;;;;;;3.53;3.20;;;23.60;99.90;;;;;;10286552;28;20264;-79
2022/08/09 08:57:55;;;;;;;4.65;2.75;;;23.60;99.90;;;;;;10280735;28;20578;-79
2022/08/09 09:03:01;;;;;;;3.47;2.90;;;23.70;99.90;;;;;;10284641;28;20245;-78
2022/08/09 09:08:17;;;;;;;2.92;2.67;;;23.70;99.90;;;;;;10288162;28;20679;-78
2022/08/09 09:13:38;;;;;;;3.05;2.75;;;23.80;99.90;;;;;;10280989;28;20319;-79
2022/08/09 09:19:04;;;;;;;8.70;3.58;;;23.90;99.90;;;;;;10290284;28;20285;-79
2022/08/09 09:24:28;;;;;;;3.10;2.67;;;24.00;99.90;;;;;;10286469;28;20249;-80
2022/08/09 09:29:32;;;;;;;4.90;3.15;;;24.00;99.90;;;;;;10262783;28;20749;-80
2022/08/09 09:35:05;;;;;;;3.53;3.15;;;24.10;99.90;;;;;;10289961;28;20687;-80
2022/08/09 09:40:11;;;;;;;6.10;3.25;;;24.10;99.90;;;;;;10286134;28;20264;-80
2022/08/09 09:45:14;;;;;;;19.80;3.92;;;24.30;99.90;;;;;;10300802;28;20221;-79
2022/08/09 09:50:45;;;;;;;2.92;2.70;;;24.40;99.90;;;;;;10285113;28;20388;-80
2022/08/09 09:55:59;;;;;;;6.95;3.25;;;24.20;99.40;;;;;;10286746;28;20641;-79
2022/08/09 10:01:20;;;;;;;3.13;2.92;;;24.30;99.80;;;;;;10287945;28;20592;-79
2022/08/09 10:06:43;;;;;;;3.55;3.17;;;24.20;99.90;;;;;;10286657;28;20241;-80
2022/08/09 10:11:57;;;;;;;16.52;3.63;;;24.40;99.90;;;;;;10284781;28;20308;-79
2022/08/09 10:17:19;;;;;;;4.15;2.03;;;24.60;98.30;;;;;;10288308;28;20229;-80
2022/08/09 10:22:42;;;;;;;3.35;3.05;;;24.60;96.90;;;;;;10281295;28;20288;-80
2022/08/09 10:27:45;;;;;;;3.08;2.78;;;24.70;99.90;;;;;;10280829;28;20241;-80
2022/08/09 10:32:59;;;;;;;4.95;3.63;;;24.60;99.90;;;;;;9595170;28;10000498;-79
2022/08/09 10:38:05;;;;;;;2.47;1.95;;;25.10;99.90;;;;;;10280617;28;20292;-79
2022/08/09 10:43:28;;;;;;;2.75;2.22;;;25.30;94.70;;;;;;10281822;28;20706;-80
2022/08/09 10:49:04;;;;;;;5.45;3.13;;;25.50;91.30;;;;;;10282414;28;20268;-80
2022/08/09 10:54:13;;;;;;;5.50;2.75;;;25.50;93.70;;;;;;10282049;28;20424;-80
2022/08/09 10:59:21;;;;;;;4.15;2.78;;;25.50;92.80;;;;;;10283177;28;20626;-80
2022/08/09 11:04:28;;;;;;;2.53;2.30;;;25.30;95.10;;;;;;10283222;28;20625;-80
2022/08/09 11:09:36;;;;;;;2.90;2.53;;;25.70;90.00;;;;;;10282110;28;20240;-80
2022/08/09 11:14:55;;;;;;;5.30;2.78;;;25.80;95.20;;;;;;10283670;28;20256;-79
2022/08/09 11:20:10;;;;;;;3.55;2.80;;;24.90;95.10;;;;;;10283401;28;20233;-79
2022/08/09 11:25:27;;;;;;;3.75;2.22;;;24.90;97.20;;;;;;10290268;28;20233;-79
2022/08/09 11:30:48;;;;;;;7.53;2.90;;;24.70;94.40;;;;;;10294370;28;20245;-79
2022/08/09 11:35:58;;;;;;;6.32;2.55;;;24.60;92.70;;;;;;10293517;28;20634;-79
2022/08/09 11:41:27;;;;;;;3.03;2.78;;;24.50;92.10;;;;;;10292653;28;20295;-80
2022/08/09 11:46:58;;;;;;;4.93;3.10;;;24.40;96.60;;;;;;10293011;28;20285;-80
2022/08/09 11:52:02;;;;;;;19.30;4.30;;;24.20;98.70;;;;;;10289689;28;20312;-79
2022/08/09 11:57:38;;;;;;;7.60;3.45;;;24.20;97.80;;;;;;10285823;28;20233;-78
2022/08/09 12:03:01;;;;;;;6.35;3.00;;;24.90;95.00;;;;;;10266956;28;20238;-79
2022/08/09 12:08:26;;;;;;;4.07;3.08;;;25.30;96.30;;;;;;10267738;28;20264;-78
2022/08/09 12:13:29;;;;;;;4.60;2.40;;;25.60;95.90;;;;;;10290704;28;20264;-79
2022/08/09 12:18:53;;;;;;;12.18;2.30;;;25.80;95.90;;;;;;10276117;28;20237;-78
2022/08/09 12:23:56;;;;;;;9.43;2.47;;;26.00;95.90;;;;;;10262820;28;20238;-78
2022/08/09 12:29:18;;;;;;;2.78;2.05;;;26.10;96.00;;;;;;10265839;28;20234;-78
2022/08/09 12:34:42;;;;;;;3.28;2.40;;;26.20;96.00;;;;;;10295114;28;20309;-79
2022/08/09 12:40:04;;;;;;;3.42;2.20;;;26.20;96.00;;;;;;10290117;28;20559;-79
2022/08/09 12:45:08;;;;;;;3.30;2.83;;;26.40;95.90;;;;;;10291085;28;20701;-79
2022/08/09 12:50:33;;;;;;;2.50;2.30;;;26.50;92.90;;;;;;10285226;28;20886;-79
2022/08/09 12:55:36;;;;;;;4.03;2.13;;;26.60;95.70;;;;;;10289917;28;20242;-79
2022/08/09 13:01:00;;;;;;;2.70;2.00;;;26.70;94.40;;;;;;10280846;28;20236;-79
2022/08/09 13:06:06;;;;;;;3.50;2.75;;;26.70;95.60;;;;;;10290531;28;20272;-87
2022/08/09 13:11:17;;;;;;;4.65;2.38;;;26.80;95.60;;;;;;10306288;28;20264;-79
2022/08/09 13:16:46;;;;;;;3.05;2.72;;;27.00;95.30;;;;;;10288521;28;20225;-80
2022/08/09 13:22:14;;;;;;;5.15;2.78;;;27.20;95.00;;;;;;10298231;28;20237;-80
2022/08/09 13:27:38;;;;;;;3.00;2.15;;;27.10;95.10;;;;;;10278931;28;20296;-80
2022/08/09 13:32:57;;;;;;;3.13;2.83;;;27.20;91.90;;;;;;10285776;28;20762;-79
2022/08/09 13:37:59;;;;;;;2.63;2.42;;;27.30;92.80;;;;;;10269261;28;20313;-80
2022/08/09 13:43:04;;;;;;;2.10;1.90;;;27.00;95.00;;;;;;10275172;28;20790;-81
2022/08/09 13:48:16;;;;;;;2.50;2.30;;;26.80;95.90;;;;;;10304081;28;20256;-80
2022/08/09 13:53:19;;;;;;;3.63;2.38;;;26.70;96.30;;;;;;10287637;28;20801;-80
2022/08/09 13:58:41;;;;;;;2.95;2.03;;;26.50;96.30;;;;;;10286134;28;20296;-80
2022/08/09 14:03:45;;;;;;;3.15;1.80;;;26.40;97.20;;;;;;10286656;28;20264;-80
2022/08/09 14:09:06;;;;;;;3.33;2.03;;;26.30;97.60;;;;;;10282422;28;20273;-81
2022/08/09 14:14:08;;;;;;;11.65;3.50;;;26.20;97.20;;;;;;10271484;28;20712;-79
2022/08/09 14:19:28;;;;;;;7.65;3.95;;;26.10;95.30;;;;;;10284757;28;20233;-78
2022/08/09 14:24:34;;;;;;;7.10;3.58;;;26.00;96.30;;;;;;10285266;28;20237;-79
2022/08/09 14:29:40;;;;;;;5.90;3.85;;;26.10;94.40;;;;;;10285158;28;20315;-78
2022/08/09 14:35:04;;;;;;;4.05;2.90;;;26.20;92.00;;;;;;10285027;28;20261;-79
2022/08/09 14:40:08;;;;;;;7.18;4.07;;;26.20;92.30;;;;;;10284569;28;20296;-79
2022/08/09 14:45:11;;;;;;;19.17;4.88;;;26.10;92.60;;;;;;10281185;28;20237;-78
2022/08/09 14:50:35;;;;;;;4.80;3.05;;;26.20;91.10;;;;;;10283921;28;20265;-78
2022/08/09 14:55:42;;;;;;;7.55;3.47;;;26.10;87.50;;;;;;10284692;28;20253;-79
2022/08/09 15:00:51;;;;;;;7.82;2.65;;;26.00;87.10;;;;;;10289760;28;20315;-79
2022/08/09 15:05:58;;;;;;;3.63;2.83;;;25.90;84.00;;;;;;10273920;28;20241;-79
2022/08/09 15:11:05;;;;;;;4.93;3.00;;;26.00;85.80;;;;;;9939104;28;10000317;-79
2022/08/09 15:16:08;;;;;;;7.25;2.95;;;25.90;86.20;;;;;;10289425;28;20276;-79
2022/08/09 15:21:11;;;;;;;3.17;2.65;;;25.70;88.60;;;;;;10290310;28;20296;-79
2022/08/09 15:26:34;;;;;;;6.10;3.15;;;25.80;90.40;;;;;;10290214;28;20240;-78
2022/08/09 15:31:36;;;;;;;7.30;2.72;;;25.60;91.30;;;;;;10291209;28;20257;-79
2022/08/09 15:36:43;;;;;;;6.55;2.53;;;25.70;92.00;;;;;;10290957;28;20652;-78
2022/08/09 15:41:49;;;;;;;4.30;2.80;;;25.70;92.30;;;;;;10290207;28;20233;-78
2022/08/09 15:46:52;;;;;;;7.50;2.85;;;25.60;92.50;;;;;;10290479;28;20296;-78
2022/08/09 15:51:54;;;;;;;4.07;2.45;;;25.50;93.40;;;;;;10291195;28;20269;-78
2022/08/09 15:57:07;;;;;;;6.30;2.97;;;25.50;94.50;;;;;;10291047;28;20202;-78
2022/08/09 16:02:11;;;;;;;4.80;2.40;;;25.50;93.80;;;;;;10286567;28;20283;-78
2022/08/09 16:07:15;;;;;;;4.88;2.70;;;25.40;96.10;;;;;;10282222;28;20241;-78
2022/08/09 16:12:18;;;;;;;2.60;2.40;;;25.20;95.90;;;;;;10287353;28;20245;-78
2022/08/09 16:17:21;;;;;;;2.60;2.40;;;25.20;95.30;;;;;;10311141;28;20306;-78
2022/08/09 16:22:24;;;;;;;2.53;2.22;;;25.20;95.50;;;;;;10304569;28;20295;-79
2022/08/09 16:27:29;;;;;;;6.32;3.00;;;25.20;95.70;;;;;;10291466;28;20229;-79
2022/08/09 16:37:55;;;;;;;4.88;2.30;;;24.90;97.10;;;;;;10292141;28;20280;-80
2022/08/09 16:43:01;;;;;;;3.33;2.42;;;24.70;98.70;;;;;;10289485;28;20284;-80
2022/08/09 16:48:04;;;;;;;7.32;2.42;;;24.60;99.90;;;;;;10292359;28;20291;-80
2022/08/09 16:53:27;;;;;;;3.42;2.13;;;24.50;99.90;;;;;;10291424;28;20268;-79
2022/08/09 16:58:36;;;;;;;6.68;2.13;;;24.70;99.90;;;;;;10292228;28;20284;-79
2022/08/09 17:03:41;;;;;;;4.05;2.20;;;24.80;99.90;;;;;;10291251;28;20226;-79
2022/08/09 17:08:43;;;;;;;2.72;2.20;;;24.80;99.90;;;;;;10290244;28;20257;-79
2022/08/09 17:14:06;;;;;;;2.47;2.10;;;24.80;99.90;;;;;;10290570;28;20297;-79
2022/08/09 17:19:08;;;;;;;4.30;2.20;;;24.80;99.80;;;;;;10290022;28;20619;-79
2022/08/09 17:24:11;;;;;;;4.55;2.38;;;24.80;99.90;;;;;;10265666;28;20209;-80
2022/08/09 17:29:31;;;;;;;1.70;1.60;;;24.70;99.90;;;;;;10290979;28;20249;-79
2022/08/09 17:34:42;;;;;;;6.53;1.98;;;24.70;99.90;;;;;;10290564;28;20245;-79
2022/08/09 17:40:05;;;;;;;4.30;1.77;;;24.60;99.90;;;;;;10290899;28;20256;-79
2022/08/09 17:45:19;;;;;;;2.30;1.95;;;24.60;99.90;;;;;;10289879;28;20197;-79
2022/08/09 17:50:39;;;;;;;2.45;2.25;;;24.60;99.90;;;;;;10267575;28;20229;-79
2022/08/09 17:55:49;;;;;;;2.95;2.40;;;24.50;99.90;;;;;;10289850;28;20292;-79
2022/08/09 18:01:00;;;;;;;3.28;2.45;;;24.40;99.90;;;;;;10289276;28;20713;-79
2022/08/09 18:06:03;;;;;;;2.92;1.92;;;24.40;99.90;;;;;;10288843;28;20240;-79
2022/08/09 18:11:16;;;;;;;2.17;1.98;;;24.40;99.90;;;;;;10288727;28;21002;-79
2022/08/09 18:16:27;;;;;;;2.17;1.90;;;24.30;99.90;;;;;;10250043;28;20290;-79
2022/08/09 18:21:32;;;;;;;3.85;2.00;;;24.20;99.90;;;;;;10288613;28;20193;-79
2022/08/09 18:26:44;;;;;;;4.00;2.00;;;24.20;99.90;;;;;;10287407;28;20233;-79
2022/08/09 18:31:49;;;;;;;3.08;2.70;;;24.20;99.90;;;;;;10288087;28;20233;-80
2022/08/09 18:36:57;;;;;;;20.83;3.83;;;23.90;99.90;;;;;;10287372;28;20213;-84
2022/08/09 18:42:04;;;;;;;10.73;4.05;;;23.00;99.90;;;;;;10259731;28;20259;-80
2022/08/09 18:47:10;;;;;;;20.13;4.05;;;21.90;99.90;;;;;;10288125;28;20229;-80
2022/08/09 18:52:17;;;;;;;12.50;3.53;;;22.40;99.90;;;;;;10287135;28;20264;-80
2022/08/09 18:57:35;;;;;;;11.07;3.97;;;20.50;99.90;;;;;;10287434;28;20295;-80
2022/08/09 19:02:46;;;;;;;51.55;6.65;;;19.10;99.90;;;;;;10286915;28;20675;-79
2022/08/09 19:07:49;;;;;;;33.50;6.05;;;18.40;99.90;;;;;;10290408;28;20265;-80
2022/08/09 19:13:13;;;;;;;12.85;5.45;;;18.00;99.90;;;;;;10287461;28;20236;-79
2022/08/09 19:18:25;;;;;;;7.38;3.63;;;17.70;99.90;;;;;;10284416;28;20234;-79
2022/08/09 19:23:39;;;;;;;12.27;3.20;;;18.70;99.90;;;;;;10277013;28;20656;-80
2022/08/09 19:29:05;;;;;;;21.75;4.03;;;20.50;99.90;;;;;;10272177;28;20288;-79
2022/08/09 19:34:19;;;;;;;8.27;3.55;;;21.50;99.90;;;;;;9939662;28;10000079;-79
2022/08/09 19:39:27;;;;;;;7.32;3.58;;;22.10;99.90;;;;;;10291573;28;20241;-79
2022/08/09 19:44:50;;;;;;;8.88;3.58;;;22.40;99.90;;;;;;10282016;28;20237;-80
2022/08/09 19:49:53;;;;;;;8.93;3.85;;;22.60;99.90;;;;;;10290507;28;20269;-80
2022/08/09 19:55:16;;;;;;;10.20;3.00;;;22.80;99.90;;;;;;10286258;28;20254;-80
2022/08/09 20:00:20;;;;;;;3.58;2.63;;;22.90;99.90;;;;;;10287062;28;20280;-80
2022/08/09 20:05:24;;;;;;;4.50;2.83;;;23.10;99.90;;;;;;10289368;28;20241;-80
2022/08/09 20:10:30;;;;;;;8.18;3.08;;;23.10;99.90;;;;;;10288853;28;20280;-80
2022/08/09 20:15:36;;;;;;;5.55;2.75;;;23.20;99.90;;;;;;10290100;28;20261;-80
2022/08/09 20:20:59;;;;;;;3.45;2.70;;;23.20;99.90;;;;;;10294611;28;20237;-83
2022/08/09 20:26:04;;;;;;;9.40;2.95;;;23.20;99.90;;;;;;10301080;28;20197;-82
2022/08/09 20:31:08;;;;;;;8.30;3.00;;;23.20;99.90;;;;;;10299885;28;20197;-80
2022/08/09 20:36:15;;;;;;;5.50;3.08;;;23.20;99.90;;;;;;10291298;28;20292;-80
2022/08/09 20:41:21;;;;;;;4.53;2.88;;;23.20;99.90;;;;;;10292167;28;20579;-79
2022/08/09 20:46:38;;;;;;;5.93;3.38;;;23.20;99.90;;;;;;10268949;28;20409;-80
2022/08/09 20:51:46;;;;;;;4.15;2.80;;;23.20;99.90;;;;;;10265720;28;20274;-80
2022/08/09 20:56:52;;;;;;;3.80;3.00;;;23.20;99.90;;;;;;10264751;28;20319;-79
2022/08/09 21:01:58;;;;;;;6.07;2.85;;;23.10;99.90;;;;;;10284124;28;20237;-79
2022/08/09 21:07:05;;;;;;;7.35;2.90;;;23.20;99.90;;;;;;10277805;28;20230;-79
2022/08/09 21:12:15;;;;;;;5.07;2.55;;;23.20;99.90;;;;;;10278970;28;20202;-79
2022/08/09 21:17:18;;;;;;;2.70;2.50;;;23.20;99.90;;;;;;10279436;28;20703;-79
2022/08/09 21:22:41;;;;;;;3.67;2.70;;;23.20;99.90;;;;;;10283558;28;20311;-80
2022/08/09 21:27:48;;;;;;;4.07;2.80;;;23.20;99.90;;;;;;10288120;28;20692;-79
2022/08/09 21:32:54;;;;;;;5.82;2.60;;;23.10;99.90;;;;;;10289669;28;20250;-80
2022/08/09 21:37:58;;;;;;;5.90;2.75;;;23.10;99.90;;;;;;10302900;28;20229;-81
2022/08/09 21:43:03;;;;;;;4.15;2.42;;;23.10;99.90;;;;;;10286450;28;20287;-80
2022/08/09 21:48:07;;;;;;;3.35;2.80;;;23.00;99.90;;;;;;10288533;28;20833;-80
2022/08/09 21:53:10;;;;;;;3.22;2.53;;;23.10;99.90;;;;;;10287856;28;20809;-80
2022/08/09 21:58:32;;;;;;;3.00;2.33;;;23.00;99.90;;;;;;10284572;28;20572;-80
2022/08/09 22:03:37;;;;;;;2.72;2.40;;;23.00;99.90;;;;;;10287580;28;20711;-81
2022/08/09 22:08:54;;;;;;;3.10;2.80;;;23.00;99.90;;;;;;10288109;28;20201;-81
2022/08/09 22:13:57;;;;;;;3.30;2.25;;;23.00;99.90;;;;;;10286696;28;20285;-80
2022/08/09 22:32:42;;;;;;;2.40;2.20;;;23.00;99.90;;;;;;10261388;28;20297;-88
2022/08/09 22:57:46;;;;;;;2.88;2.60;;;19.50;99.90;;;;;;10379977;23;10001979;-88
2022/08/09 23:03:00;;;;;;;4.47;2.70;;;21.80;99.90;;;;;;10285609;28;20233;-88
2022/08/09 23:13:31;;;;;;;3.15;2.55;;;22.50;99.90;;;;;;10279275;28;20300;-88
2022/08/09 23:18:33;;;;;;;2.90;2.60;;;22.60;99.90;;;;;;10291597;28;20261;-88
2022/08/09 23:23:37;;;;;;;3.08;2.42;;;22.70;99.90;;;;;;10299794;28;20228;-88
2022/08/09 23:28:39;;;;;;;3.33;2.22;;;22.80;99.90;;;;;;10310182;28;20213;-88
2022/08/09 23:33:42;;;;;;;3.80;2.60;;;22.70;99.90;;;;;;10326952;23;20323;-79
2022/08/09 23:38:45;;;;;;;3.20;2.72;;;22.80;99.90;;;;;;10354160;28;20224;-79
2022/08/09 23:43:50;;;;;;;3.72;2.13;;;22.80;99.90;;;;;;10351285;28;20229;-79
2022/08/09 23:48:57;;;;;;;3.45;3.05;;;22.80;99.90;;;;;;10351786;28;20236;-79
2022/08/09 23:54:00;;;;;;;3.05;2.53;;;22.80;99.90;;;;;;10348878;28;20247;-79
2022/08/09 23:59:04;;;;;;;3.20;2.38;;;22.70;99.90;;;;;;10340372;28;20237;-79
